Time;durP1;ratioP1;P1;durP2;ratioP2;P2;SDS_P1;SDS_P2;PMS_P1;PMS_P2;Temp;Humidity;BMP_temperature;BMP_pressure;BME280_temperature;BME280_humidity;BME280_pressure;Samples;Min_cycle;Max_cycle;Signal;HPM_P1;HPM_P2
2023/10/07 00:02:11;;;;;;;;;;;;;;;;;;5094339;28;20349;-59
2023/10/07 00:04:38;;;;;;;;;;;;;;;;;;5094062;28;19923;-59
2023/10/07 00:07:04;;;;;;;;;;;;;;;;;;5094316;28;20424;-60
2023/10/07 00:09:29;;;;;;;;;;;;;;;;;;5093974;28;19919;-59
2023/10/07 00:11:54;;;;;;;;;;;;;;;;;;5094186;28;19916;-58
2023/10/07 00:14:27;;;;;;;;;;;;;;;;;;5093907;28;19935;-60
2023/10/07 00:16:52;;;;;;;;;;;;;;;;;;5093885;28;19924;-59
2023/10/07 00:19:17;;;;;;;;;;;;;;;;;;5092461;28;19919;-58
2023/10/07 00:22:49;;;;;;;;;;;;;;;;;;5093910;28;19916;-58
2023/10/07 00:24:42;;;;;;;;;;;;;;;;;;5080018;28;20407;-59
2023/10/07 00:27:20;;;;;;;;;;;;;;;;;;5092260;28;19916;-60
2023/10/07 00:29:54;;;;;;;;;;;;;;;;;;5093985;28;20419;-59
2023/10/07 00:32:19;;;;;;;;;;;;;;;;;;5094058;28;20384;-58
2023/10/07 00:34:47;;;;;;;;;;;;;;;;;;5093761;28;19920;-58
2023/10/07 00:37:15;;;;;;;;;;;;;;;;;;5092494;28;19920;-59
2023/10/07 00:39:43;;;;;;;;;;;;;;;;;;5105331;28;20412;-59
2023/10/07 00:42:10;;;;;;;;;;;;;;;;;;5114112;28;19911;-59
2023/10/07 00:44:35;;;;;;;;;;;;;;;;;;5113726;28;20434;-59
2023/10/07 00:47:22;;;;;;;;;;;;;;;;;;5111504;28;20006;-59
2023/10/07 00:52:13;;;;;;;;;;;;;;;;;;5113803;28;19971;-58
2023/10/07 00:54:50;;;;;;;;;;;;;;;;;;5111396;28;19912;-58
2023/10/07 01:00:00;;;;;;;;;;;;;;;;;;5112404;28;20742;-59
2023/10/07 01:02:37;;;;;;;;;;;;;;;;;;5113789;28;19916;-60
2023/10/07 01:06:07;;;;;;;;;;;;;;;;;;5111355;28;19957;-58
2023/10/07 01:07:53;;;;;;;;;;;;;;;;;;5108256;28;20292;-59
2023/10/07 01:10:24;;;;;;;;;;;;;;;;;;5112200;28;19908;-59
2023/10/07 01:12:51;;;;;;;;;;;;;;;;;;5113847;28;19915;-59
2023/10/07 01:17:45;;;;;;;;;;;;;;;;;;5113599;28;19916;-58
2023/10/07 01:20:12;;;;;;;;;;;;;;;;;;5112120;28;19915;-60
2023/10/07 01:22:43;;;;;;;;;;;;;;;;;;5112135;28;19920;-60
2023/10/07 01:25:10;;;;;;;;;;;;;;;;;;5112080;28;19912;-60
2023/10/07 01:27:49;;;;;;;;;;;;;;;;;;5111894;28;19915;-59
2023/10/07 01:30:17;;;;;;;;;;;;;;;;;;5111834;28;19957;-57
2023/10/07 01:32:53;;;;;;;;;;;;;;;;;;5112035;28;20096;-60
2023/10/07 01:35:25;;;;;;;;;;;;;;;;;;5112956;28;19919;-60
2023/10/07 01:37:59;;;;;;;;;;;;;;;;;;5113324;28;20355;-59
2023/10/07 01:40:27;;;;;;;;;;;;;;;;;;5111562;28;19965;-59
2023/10/07 01:42:53;;;;;;;;;;;;;;;;;;5113310;28;19915;-58
2023/10/07 01:45:22;;;;;;;;;;;;;;;;;;5112805;28;19957;-59
2023/10/07 01:47:48;;;;;;;;;;;;;;;;;;5111328;28;19965;-59
2023/10/07 01:50:14;;;;;;;;;;;;;;;;;;5111555;28;20384;-60
2023/10/07 01:52:39;;;;;;;;;;;;;;;;;;5111593;28;19930;-58
2023/10/07 01:55:09;;;;;;;;;;;;;;;;;;5112631;28;19912;-61
2023/10/07 01:57:34;;;;;;;;;;;;;;;;;;5111402;28;20010;-59
2023/10/07 02:00:04;;;;;;;;;;;;;;;;;;5094045;28;20466;-58
2023/10/07 02:02:48;;;;;;;;;;;;;;;;;;5095525;28;19923;-58
2023/10/07 02:05:14;;;;;;;;;;;;;;;;;;5112547;28;20288;-60
2023/10/07 02:07:40;;;;;;;;;;;;;;;;;;5094332;28;19922;-60
2023/10/07 02:10:05;;;;;;;;;;;;;;;;;;5112508;28;19912;-58
2023/10/07 02:12:33;;;;;;;;;;;;;;;;;;5111358;28;20014;-59
2023/10/07 02:15:03;;;;;;;;;;;;;;;;;;5111076;28;19926;-59
2023/10/07 02:17:28;;;;;;;;;;;;;;;;;;5094347;28;19916;-59
2023/10/07 02:19:55;;;;;;;;;;;;;;;;;;5111128;28;19911;-59
2023/10/07 02:22:27;;;;;;;;;;;;;;;;;;5112503;28;19934;-58
2023/10/07 02:25:05;;;;;;;;;;;;;;;;;;5112319;28;20446;-58
2023/10/07 02:27:42;;;;;;;;;;;;;;;;;;5112475;28;19920;-59
2023/10/07 02:30:16;;;;;;;;;;;;;;;;;;5112460;28;19998;-59
2023/10/07 02:32:42;;;;;;;;;;;;;;;;;;5111514;28;19923;-60
2023/10/07 02:35:09;;;;;;;;;;;;;;;;;;5111155;28;19911;-59
2023/10/07 02:37:38;;;;;;;;;;;;;;;;;;5112376;28;20377;-60
2023/10/07 02:40:19;;;;;;;;;;;;;;;;;;5112268;28;19908;-60
2023/10/07 02:42:46;;;;;;;;;;;;;;;;;;5110845;28;20015;-59
2023/10/07 02:45:20;;;;;;;;;;;;;;;;;;5112136;28;19911;-58
2023/10/07 02:47:47;;;;;;;;;;;;;;;;;;5093771;28;19915;-59
2023/10/07 02:50:13;;;;;;;;;;;;;;;;;;5112042;28;19912;-59
2023/10/07 02:52:39;;;;;;;;;;;;;;;;;;5110671;28;20284;-59
2023/10/07 02:57:42;;;;;;;;;;;;;;;;;;5110706;28;19929;-59
2023/10/07 03:00:15;;;;;;;;;;;;;;;;;;5111956;28;19911;-59
2023/10/07 03:02:50;;;;;;;;;;;;;;;;;;5093910;28;19916;-60
2023/10/07 03:05:27;;;;;;;;;;;;;;;;;;5111913;28;19993;-58
2023/10/07 03:08:01;;;;;;;;;;;;;;;;;;5110613;28;19965;-58
2023/10/07 03:10:43;;;;;;;;;;;;;;;;;;5094286;28;19955;-59
2023/10/07 03:13:08;;;;;;;;;;;;;;;;;;5114697;28;19923;-59
2023/10/07 03:18:00;;;;;;;;;;;;;;;;;;5114480;28;19915;-59
2023/10/07 03:20:30;;;;;;;;;;;;;;;;;;5115486;28;19918;-60
2023/10/07 03:23:17;;;;;;;;;;;;;;;;;;5115280;28;19915;-59
2023/10/07 03:26:05;;;;;;;;;;;;;;;;;;5115964;28;19912;-59
2023/10/07 03:28:34;;;;;;;;;;;;;;;;;;5114430;28;20025;-58
2023/10/07 03:31:00;;;;;;;;;;;;;;;;;;5115527;28;19958;-59
2023/10/07 03:36:29;;;;;;;;;;;;;;;;;;5114378;28;20014;-57
2023/10/07 03:41:39;;;;;;;;;;;;;;;;;;5115292;28;19930;-58
2023/10/07 03:44:06;;;;;;;;;;;;;;;;;;5115191;28;19907;-59
2023/10/07 03:46:34;;;;;;;;;;;;;;;;;;5115299;28;19916;-59
2023/10/07 03:48:59;;;;;;;;;;;;;;;;;;5115236;28;20360;-59
2023/10/07 03:51:30;;;;;;;;;;;;;;;;;;5114953;28;19924;-59
2023/10/07 03:54:00;;;;;;;;;;;;;;;;;;5113971;28;20288;-59
2023/10/07 03:56:26;;;;;;;;;;;;;;;;;;5114965;28;19924;-59
2023/10/07 03:58:51;;;;;;;;;;;;;;;;;;5113523;28;19985;-59
2023/10/07 04:01:16;;;;;;;;;;;;;;;;;;5114883;28;20404;-58
2023/10/07 04:03:46;;;;;;;;;;;;;;;;;;5114784;28;19912;-59
2023/10/07 04:06:12;;;;;;;;;;;;;;;;;;5112572;28;19955;-58
2023/10/07 04:08:39;;;;;;;;;;;;;;;;;;5114765;28;19976;-59
2023/10/07 04:11:07;;;;;;;;;;;;;;;;;;5113365;28;19918;-60
2023/10/07 04:13:32;;;;;;;;;;;;;;;;;;5114531;28;19946;-59
2023/10/07 04:16:02;;;;;;;;;;;;;;;;;;5114528;28;20004;-59
2023/10/07 04:18:34;;;;;;;;;;;;;;;;;;5113225;28;19938;-59
2023/10/07 04:20:59;;;;;;;;;;;;;;;;;;5113024;28;19947;-59
2023/10/07 04:23:25;;;;;;;;;;;;;;;;;;5114641;28;20016;-59
2023/10/07 04:25:50;;;;;;;;;;;;;;;;;;5114187;28;20335;-59
2023/10/07 04:28:15;;;;;;;;;;;;;;;;;;5114617;28;20356;-57
2023/10/07 04:30:46;;;;;;;;;;;;;;;;;;5114291;28;19911;-59
2023/10/07 04:33:12;;;;;;;;;;;;;;;;;;5114651;28;19966;-59
2023/10/07 04:35:38;;;;;;;;;;;;;;;;;;5112822;28;19959;-58
2023/10/07 04:38:18;;;;;;;;;;;;;;;;;;5113043;28;19916;-59
2023/10/07 04:43:37;;;;;;;;;;;;;;;;;;5114415;28;19968;-61
2023/10/07 04:46:12;;;;;;;;;;;;;;;;;;5114249;28;20319;-60
2023/10/07 04:48:54;;;;;;;;;;;;;;;;;;5113046;28;20012;-61
2023/10/07 04:51:24;;;;;;;;;;;;;;;;;;5113471;28;19912;-59
2023/10/07 04:53:57;;;;;;;;;;;;;;;;;;5113650;28;19912;-59
2023/10/07 04:56:25;;;;;;;;;;;;;;;;;;5113581;28;20349;-60
2023/10/07 04:58:51;;;;;;;;;;;;;;;;;;5113761;28;20340;-59
2023/10/07 05:01:56;;;;;;;;;;;;;;;;;;5112173;28;19954;-59
2023/10/07 05:04:09;;;;;;;;;;;;;;;;;;5111346;28;19918;-59
2023/10/07 05:06:35;;;;;;;;;;;;;;;;;;5111633;28;19959;-59
2023/10/07 05:09:03;;;;;;;;;;;;;;;;;;5113299;28;20364;-60
2023/10/07 05:11:29;;;;;;;;;;;;;;;;;;5113390;28;19912;-60
2023/10/07 05:13:55;;;;;;;;;;;;;;;;;;5111964;28;19964;-59
2023/10/07 05:16:22;;;;;;;;;;;;;;;;;;5113083;28;19915;-59
2023/10/07 05:18:47;;;;;;;;;;;;;;;;;;5112982;28;19916;-60
2023/10/07 05:21:15;;;;;;;;;;;;;;;;;;5113393;28;19914;-58
2023/10/07 05:23:41;;;;;;;;;;;;;;;;;;5113109;28;20376;-60
2023/10/07 05:26:09;;;;;;;;;;;;;;;;;;5113184;28;19956;-58
2023/10/07 05:28:34;;;;;;;;;;;;;;;;;;5112919;28;20384;-59
2023/10/07 05:31:03;;;;;;;;;;;;;;;;;;5112968;28;19908;-60
2023/10/07 05:33:32;;;;;;;;;;;;;;;;;;5111161;28;20002;-59
2023/10/07 05:35:58;;;;;;;;;;;;;;;;;;5112856;28;19919;-61
2023/10/07 05:38:23;;;;;;;;;;;;;;;;;;5113170;28;19920;-60
2023/10/07 05:40:49;;;;;;;;;;;;;;;;;;5111593;28;20121;-59
2023/10/07 05:43:15;;;;;;;;;;;;;;;;;;5113228;28;19938;-60
2023/10/07 05:45:40;;;;;;;;;;;;;;;;;;5112964;28;20400;-59
2023/10/07 05:48:05;;;;;;;;;;;;;;;;;;5113232;28;19916;-59
2023/10/07 05:50:32;;;;;;;;;;;;;;;;;;5112899;28;19957;-59
2023/10/07 05:52:57;;;;;;;;;;;;;;;;;;5112981;28;19934;-60
2023/10/07 05:55:23;;;;;;;;;;;;;;;;;;5112872;28;20025;-59
2023/10/07 05:57:48;;;;;;;;;;;;;;;;;;5111416;28;19922;-59
2023/10/07 06:00:17;;;;;;;;;;;;;;;;;;5111494;28;19908;-60
2023/10/07 06:02:42;;;;;;;;;;;;;;;;;;5094429;28;19922;-59
2023/10/07 06:05:10;;;;;;;;;;;;;;;;;;5091864;28;19908;-59
2023/10/07 06:07:36;;;;;;;;;;;;;;;;;;5092500;28;19965;-58
2023/10/07 06:10:02;;;;;;;;;;;;;;;;;;5092146;28;19958;-58
2023/10/07 06:12:28;;;;;;;;;;;;;;;;;;5082581;28;19921;-59
2023/10/07 06:14:54;;;;;;;;;;;;;;;;;;5071708;28;19908;-61
2023/10/07 06:17:20;;;;;;;;;;;;;;;;;;5071903;28;20366;-60
2023/10/07 06:19:45;;;;;;;;;;;;;;;;;;5072052;28;19931;-59
2023/10/07 06:22:11;;;;;;;;;;;;;;;;;;5071394;28;19953;-60
2023/10/07 06:24:37;;;;;;;;;;;;;;;;;;5070513;28;20293;-59
2023/10/07 06:27:06;;;;;;;;;;;;;;;;;;5071756;28;19916;-60
2023/10/07 06:29:32;;;;;;;;;;;;;;;;;;5071624;28;19912;-59
2023/10/07 06:34:54;;;;;;;;;;;;;;;;;;5057253;28;19990;-59
2023/10/07 06:37:28;;;;;;;;;;;;;;;;;;5071616;28;19931;-59
2023/10/07 06:39:53;;;;;;;;;;;;;;;;;;5098520;28;19912;-60
2023/10/07 06:42:24;;;;;;;;;;;;;;;;;;5112031;28;19922;-59
2023/10/07 06:44:50;;;;;;;;;;;;;;;;;;5112730;28;19918;-59
2023/10/07 06:47:16;;;;;;;;;;;;;;;;;;5095723;28;19915;-60
2023/10/07 06:49:41;;;;;;;;;;;;;;;;;;5095552;28;19919;-60
2023/10/07 06:52:06;;;;;;;;;;;;;;;;;;5095631;28;19928;-59
2023/10/07 06:54:34;;;;;;;;;;;;;;;;;;5095473;28;19912;-58
2023/10/07 06:57:01;;;;;;;;;;;;;;;;;;5095701;28;19924;-59
2023/10/07 06:59:29;;;;;;;;;;;;;;;;;;5094548;28;19915;-58
2023/10/07 07:01:55;;;;;;;;;;;;;;;;;;5095495;28;19916;-57
2023/10/07 07:04:22;;;;;;;;;;;;;;;;;;5079634;28;19919;-59
2023/10/07 07:06:58;;;;;;;;;;;;;;;;;;5075533;28;20021;-55
2023/10/07 07:09:41;;;;;;;;;;;;;;;;;;5057066;28;20330;-60
2023/10/07 07:12:09;;;;;;;;;;;;;;;;;;5075076;28;19986;-60
2023/10/07 07:14:34;;;;;;;;;;;;;;;;;;5074980;28;19916;-59
2023/10/07 07:17:29;;;;;;;;;;;;;;;;;;5073645;28;19924;-59
2023/10/07 07:19:45;;;;;;;;;;;;;;;;;;5074689;28;19912;-58
2023/10/07 07:22:15;;;;;;;;;;;;;;;;;;5073368;28;19912;-58
2023/10/07 07:24:41;;;;;;;;;;;;;;;;;;5076969;28;20385;-60
2023/10/07 07:27:08;;;;;;;;;;;;;;;;;;5074924;28;19967;-59
2023/10/07 07:29:34;;;;;;;;;;;;;;;;;;5073418;28;19919;-60
2023/10/07 07:31:59;;;;;;;;;;;;;;;;;;5083476;28;19916;-59
2023/10/07 07:34:31;;;;;;;;;;;;;;;;;;5094982;28;19912;-58
2023/10/07 07:37:02;;;;;;;;;;;;;;;;;;5093905;28;20027;-59
2023/10/07 07:39:32;;;;;;;;;;;;;;;;;;5070131;28;20346;-59
2023/10/07 07:42:00;;;;;;;;;;;;;;;;;;5097100;28;19919;-56
2023/10/07 07:44:32;;;;;;;;;;;;;;;;;;5113665;28;19996;-56
2023/10/07 07:46:57;;;;;;;;;;;;;;;;;;5115247;28;20441;-58
2023/10/07 07:49:27;;;;;;;;;;;;;;;;;;5115102;28;19912;-57
2023/10/07 07:51:53;;;;;;;;;;;;;;;;;;5114860;28;19923;-57
2023/10/07 07:54:18;;;;;;;;;;;;;;;;;;5100930;28;20034;-58
2023/10/07 07:56:45;;;;;;;;;;;;;;;;;;5082103;28;19938;-57
2023/10/07 07:59:13;;;;;;;;;;;;;;;;;;5048416;28;20374;-59
2023/10/07 08:01:39;;;;;;;;;;;;;;;;;;5074481;28;19916;-58
2023/10/07 08:04:09;;;;;;;;;;;;;;;;;;5072434;28;19912;-57
2023/10/07 08:06:35;;;;;;;;;;;;;;;;;;5070454;28;19924;-59
2023/10/07 08:09:02;;;;;;;;;;;;;;;;;;5071697;28;19913;-59
2023/10/07 08:11:27;;;;;;;;;;;;;;;;;;5073850;28;19916;-60
2023/10/07 08:13:53;;;;;;;;;;;;;;;;;;5073401;28;19908;-59
2023/10/07 08:16:19;;;;;;;;;;;;;;;;;;5073771;28;19943;-59
2023/10/07 08:18:46;;;;;;;;;;;;;;;;;;5073889;28;20007;-60
2023/10/07 08:21:13;;;;;;;;;;;;;;;;;;5073777;28;19908;-60
2023/10/07 08:23:40;;;;;;;;;;;;;;;;;;5073955;28;19912;-59
2023/10/07 08:26:12;;;;;;;;;;;;;;;;;;5091746;28;20276;-58
2023/10/07 08:28:42;;;;;;;;;;;;;;;;;;5093962;28;19916;-61
2023/10/07 08:31:19;;;;;;;;;;;;;;;;;;5092269;28;20273;-60
2023/10/07 08:33:53;;;;;;;;;;;;;;;;;;5075336;28;19912;-59
2023/10/07 08:36:18;;;;;;;;;;;;;;;;;;5093608;28;19973;-60
2023/10/07 08:38:45;;;;;;;;;;;;;;;;;;5092140;28;19916;-59
2023/10/07 08:41:16;;;;;;;;;;;;;;;;;;5092453;28;19970;-59
2023/10/07 08:43:44;;;;;;;;;;;;;;;;;;5093770;28;19912;-56
2023/10/07 08:46:12;;;;;;;;;;;;;;;;;;5093832;28;19916;-58
2023/10/07 08:48:38;;;;;;;;;;;;;;;;;;5093396;28;19915;-58
2023/10/07 08:51:10;;;;;;;;;;;;;;;;;;5093413;28;19912;-57
2023/10/07 08:53:36;;;;;;;;;;;;;;;;;;5093110;28;19923;-58
2023/10/07 08:56:02;;;;;;;;;;;;;;;;;;5093335;28;19942;-63
2023/10/07 08:58:31;;;;;;;;;;;;;;;;;;5092022;28;19974;-59
2023/10/07 09:00:56;;;;;;;;;;;;;;;;;;5093464;28;19916;-58
2023/10/07 09:03:26;;;;;;;;;;;;;;;;;;5092774;28;19957;-60
2023/10/07 09:05:51;;;;;;;;;;;;;;;;;;5092968;28;19912;-60
2023/10/07 09:08:19;;;;;;;;;;;;;;;;;;5092575;28;19927;-59
2023/10/07 09:10:48;;;;;;;;;;;;;;;;;;5093167;28;19974;-59
2023/10/07 09:13:19;;;;;;;;;;;;;;;;;;5092906;28;19916;-57
2023/10/07 09:15:46;;;;;;;;;;;;;;;;;;5093062;28;20032;-57
2023/10/07 09:18:17;;;;;;;;;;;;;;;;;;5091958;28;19965;-59
2023/10/07 09:20:50;;;;;;;;;;;;;;;;;;5093242;28;19912;-57
2023/10/07 09:23:19;;;;;;;;;;;;;;;;;;5091749;28;20023;-57
2023/10/07 09:25:51;;;;;;;;;;;;;;;;;;5097075;28;20279;-58
2023/10/07 09:28:21;;;;;;;;;;;;;;;;;;5113583;28;19942;-58
2023/10/07 09:30:48;;;;;;;;;;;;;;;;;;5111929;28;19950;-59
2023/10/07 09:33:13;;;;;;;;;;;;;;;;;;5113440;28;19916;-58
2023/10/07 09:35:42;;;;;;;;;;;;;;;;;;5113263;28;19920;-54
2023/10/07 09:38:12;;;;;;;;;;;;;;;;;;5113495;28;20515;-57
2023/10/07 09:43:25;;;;;;;;;;;;;;;;;;5113225;28;19947;-60
2023/10/07 09:45:53;;;;;;;;;;;;;;;;;;5113137;28;19918;-61
2023/10/07 09:48:23;;;;;;;;;;;;;;;;;;5113205;28;19915;-60
2023/10/07 09:50:50;;;;;;;;;;;;;;;;;;5111736;28;20325;-58
2023/10/07 09:53:16;;;;;;;;;;;;;;;;;;5111367;28;19924;-59
2023/10/07 09:55:41;;;;;;;;;;;;;;;;;;5111340;28;19919;-57
2023/10/07 09:58:06;;;;;;;;;;;;;;;;;;5113050;28;20123;-60
2023/10/07 10:03:03;;;;;;;;;;;;;;;;;;5092525;28;20370;-59
2023/10/07 10:05:31;;;;;;;;;;;;;;;;;;5092085;28;20423;-58
2023/10/07 10:07:57;;;;;;;;;;;;;;;;;;5091681;28;19992;-61
2023/10/07 10:10:31;;;;;;;;;;;;;;;;;;5090675;28;20388;-59
2023/10/07 10:13:07;;;;;;;;;;;;;;;;;;5074029;28;20397;-58
2023/10/07 10:18:05;;;;;;;;;;;;;;;;;;5082920;28;19920;-59
2023/10/07 10:20:42;;;;;;;;;;;;;;;;;;5080925;28;19918;-60
2023/10/07 10:23:08;;;;;;;;;;;;;;;;;;5081051;28;19920;-60
2023/10/07 10:25:39;;;;;;;;;;;;;;;;;;5080112;28;19954;-59
2023/10/07 10:28:07;;;;;;;;;;;;;;;;;;5082247;28;19916;-60
2023/10/07 10:30:33;;;;;;;;;;;;;;;;;;5080024;28;19919;-61
2023/10/07 10:32:58;;;;;;;;;;;;;;;;;;5071311;28;19916;-59
2023/10/07 10:35:23;;;;;;;;;;;;;;;;;;5079606;28;19959;-62
2023/10/07 10:37:49;;;;;;;;;;;;;;;;;;5087352;28;19960;-58
2023/10/07 10:40:14;;;;;;;;;;;;;;;;;;5071908;28;20357;-58
2023/10/07 10:42:41;;;;;;;;;;;;;;;;;;5071545;28;20015;-57
2023/10/07 10:45:10;;;;;;;;;;;;;;;;;;5070080;28;19957;-59
2023/10/07 10:47:38;;;;;;;;;;;;;;;;;;5071257;28;19956;-58
2023/10/07 10:50:07;;;;;;;;;;;;;;;;;;5071366;28;20010;-60
2023/10/07 10:52:32;;;;;;;;;;;;;;;;;;5071610;28;19924;-58
2023/10/07 10:54:58;;;;;;;;;;;;;;;;;;5071163;28;20407;-60
2023/10/07 10:57:24;;;;;;;;;;;;;;;;;;5070147;28;19924;-60
2023/10/07 10:59:50;;;;;;;;;;;;;;;;;;5092103;28;19919;-60
2023/10/07 11:02:17;;;;;;;;;;;;;;;;;;5091439;28;19958;-60
2023/10/07 11:04:43;;;;;;;;;;;;;;;;;;5091157;28;20041;-61
2023/10/07 11:07:09;;;;;;;;;;;;;;;;;;5091411;28;20026;-60
2023/10/07 11:09:36;;;;;;;;;;;;;;;;;;5091444;28;20012;-58
2023/10/07 11:12:09;;;;;;;;;;;;;;;;;;5089840;28;20044;-60
2023/10/07 11:14:35;;;;;;;;;;;;;;;;;;5087473;28;20377;-60
2023/10/07 11:17:03;;;;;;;;;;;;;;;;;;5089328;28;20013;-58
2023/10/07 11:19:28;;;;;;;;;;;;;;;;;;5090020;28;19915;-60
2023/10/07 11:21:54;;;;;;;;;;;;;;;;;;5087003;28;20266;-60
2023/10/07 11:24:20;;;;;;;;;;;;;;;;;;5090991;28;20388;-60
2023/10/07 11:26:49;;;;;;;;;;;;;;;;;;5094436;28;20022;-59
2023/10/07 11:29:15;;;;;;;;;;;;;;;;;;5110828;28;20352;-61
2023/10/07 11:31:41;;;;;;;;;;;;;;;;;;5112452;28;19926;-60
2023/10/07 11:34:06;;;;;;;;;;;;;;;;;;5115380;28;19908;-60
2023/10/07 11:36:32;;;;;;;;;;;;;;;;;;5114750;28;19924;-62
2023/10/07 11:38:57;;;;;;;;;;;;;;;;;;5094433;28;19920;-61
2023/10/07 11:41:23;;;;;;;;;;;;;;;;;;5094500;28;20376;-58
2023/10/07 11:43:48;;;;;;;;;;;;;;;;;;5059629;28;19966;-61
2023/10/07 11:46:13;;;;;;;;;;;;;;;;;;5088413;28;20289;-59
2023/10/07 11:48:41;;;;;;;;;;;;;;;;;;5082734;28;20297;-61
2023/10/07 11:51:07;;;;;;;;;;;;;;;;;;5083082;28;19966;-61
2023/10/07 11:53:32;;;;;;;;;;;;;;;;;;5084304;28;19967;-59
2023/10/07 11:55:57;;;;;;;;;;;;;;;;;;5082530;28;19925;-60
2023/10/07 11:58:24;;;;;;;;;;;;;;;;;;5084104;28;20285;-60
2023/10/07 12:00:50;;;;;;;;;;;;;;;;;;5076223;28;19975;-59
2023/10/07 12:03:17;;;;;;;;;;;;;;;;;;5076183;28;20283;-60
2023/10/07 12:05:43;;;;;;;;;;;;;;;;;;5091147;28;20015;-60
2023/10/07 12:08:11;;;;;;;;;;;;;;;;;;5093403;28;20288;-60
2023/10/07 12:10:37;;;;;;;;;;;;;;;;;;5092587;28;19907;-59
2023/10/07 12:13:03;;;;;;;;;;;;;;;;;;5091937;28;19916;-62
2023/10/07 12:15:29;;;;;;;;;;;;;;;;;;5093426;28;19912;-60
2023/10/07 12:17:54;;;;;;;;;;;;;;;;;;5075208;28;19923;-59
2023/10/07 12:20:21;;;;;;;;;;;;;;;;;;5092476;28;19999;-59
2023/10/07 12:22:46;;;;;;;;;;;;;;;;;;5093221;28;19958;-60
2023/10/07 12:25:18;;;;;;;;;;;;;;;;;;5093001;28;19947;-60
2023/10/07 12:27:44;;;;;;;;;;;;;;;;;;5091707;28;19922;-60
2023/10/07 12:30:11;;;;;;;;;;;;;;;;;;5091846;28;19998;-59
2023/10/07 12:32:36;;;;;;;;;;;;;;;;;;5093727;28;20435;-60
2023/10/07 12:35:03;;;;;;;;;;;;;;;;;;5092581;28;20011;-59
2023/10/07 12:37:31;;;;;;;;;;;;;;;;;;5089683;28;19977;-59
2023/10/07 12:39:56;;;;;;;;;;;;;;;;;;5089196;28;19912;-59
2023/10/07 12:42:25;;;;;;;;;;;;;;;;;;5088466;28;19920;-59
2023/10/07 12:44:50;;;;;;;;;;;;;;;;;;5071016;28;19990;-60
2023/10/07 12:47:16;;;;;;;;;;;;;;;;;;5087529;28;19923;-58
2023/10/07 12:49:45;;;;;;;;;;;;;;;;;;5088382;28;19919;-58
2023/10/07 12:52:11;;;;;;;;;;;;;;;;;;5088871;28;19924;-58
2023/10/07 12:54:37;;;;;;;;;;;;;;;;;;5087589;28;20407;-57
2023/10/07 12:57:03;;;;;;;;;;;;;;;;;;5087836;28;19920;-58
2023/10/07 12:59:35;;;;;;;;;;;;;;;;;;5088111;28;19927;-59
2023/10/07 13:02:03;;;;;;;;;;;;;;;;;;5089724;28;19954;-60
2023/10/07 13:04:34;;;;;;;;;;;;;;;;;;5088389;28;19967;-57
2023/10/07 13:07:33;;;;;;;;;;;;;;;;;;5088224;28;20001;-59
2023/10/07 13:09:53;;;;;;;;;;;;;;;;;;5087628;28;19916;-59
2023/10/07 13:12:18;;;;;;;;;;;;;;;;;;5088750;28;19939;-59
2023/10/07 13:14:46;;;;;;;;;;;;;;;;;;5088315;28;20376;-57
2023/10/07 13:17:13;;;;;;;;;;;;;;;;;;5087947;28;19920;-59
2023/10/07 13:19:40;;;;;;;;;;;;;;;;;;5087936;28;19920;-60
2023/10/07 13:22:06;;;;;;;;;;;;;;;;;;5087378;28;19912;-59
2023/10/07 13:24:31;;;;;;;;;;;;;;;;;;5088466;28;19922;-60
2023/10/07 13:26:56;;;;;;;;;;;;;;;;;;5092465;28;20288;-60
2023/10/07 13:29:23;;;;;;;;;;;;;;;;;;5090627;28;19959;-59
2023/10/07 13:31:48;;;;;;;;;;;;;;;;;;5087029;28;20495;-58
2023/10/07 13:34:15;;;;;;;;;;;;;;;;;;5091175;28;20011;-61
2023/10/07 13:36:42;;;;;;;;;;;;;;;;;;5091805;28;19923;-61
2023/10/07 13:39:17;;;;;;;;;;;;;;;;;;5086315;28;19920;-59
2023/10/07 13:41:43;;;;;;;;;;;;;;;;;;5092035;28;19911;-60
2023/10/07 13:44:09;;;;;;;;;;;;;;;;;;5092088;28;19916;-60
2023/10/07 13:46:35;;;;;;;;;;;;;;;;;;5091825;28;20351;-61
2023/10/07 13:49:02;;;;;;;;;;;;;;;;;;5081476;28;20003;-59
2023/10/07 13:51:31;;;;;;;;;;;;;;;;;;5090717;28;19911;-59
2023/10/07 13:56:49;;;;;;;;;;;;;;;;;;5087778;28;19919;-56
2023/10/07 13:59:15;;;;;;;;;;;;;;;;;;5086332;28;19919;-60
2023/10/07 14:01:42;;;;;;;;;;;;;;;;;;5086023;28;19912;-59
2023/10/07 14:04:07;;;;;;;;;;;;;;;;;;5087110;28;19973;-59
2023/10/07 14:06:33;;;;;;;;;;;;;;;;;;5086409;28;19912;-58
2023/10/07 14:08:58;;;;;;;;;;;;;;;;;;5085712;28;19969;-59
2023/10/07 14:11:24;;;;;;;;;;;;;;;;;;5088778;28;19916;-58
2023/10/07 14:13:49;;;;;;;;;;;;;;;;;;5090036;28;19967;-61
2023/10/07 14:16:17;;;;;;;;;;;;;;;;;;5089266;28;19965;-55
2023/10/07 14:18:43;;;;;;;;;;;;;;;;;;5085459;28;20401;-58
2023/10/07 14:21:09;;;;;;;;;;;;;;;;;;5087233;28;20280;-61
2023/10/07 14:23:34;;;;;;;;;;;;;;;;;;5085690;28;19923;-60
2023/10/07 14:26:00;;;;;;;;;;;;;;;;;;5084818;28;19912;-62
2023/10/07 14:28:26;;;;;;;;;;;;;;;;;;5082993;28;20327;-60
2023/10/07 14:30:51;;;;;;;;;;;;;;;;;;5087030;28;19912;-62
2023/10/07 14:33:16;;;;;;;;;;;;;;;;;;5085902;28;19912;-58
2023/10/07 14:35:44;;;;;;;;;;;;;;;;;;5088746;28;19920;-61
2023/10/07 14:38:09;;;;;;;;;;;;;;;;;;5089651;28;19912;-60
2023/10/07 14:40:35;;;;;;;;;;;;;;;;;;5089863;28;20007;-61
2023/10/07 14:43:00;;;;;;;;;;;;;;;;;;5072907;28;19912;-61
2023/10/07 14:45:26;;;;;;;;;;;;;;;;;;5091237;28;19912;-62
2023/10/07 14:47:51;;;;;;;;;;;;;;;;;;5090814;28;19912;-59
2023/10/07 14:50:18;;;;;;;;;;;;;;;;;;5091275;28;19916;-58
2023/10/07 14:52:43;;;;;;;;;;;;;;;;;;5085103;28;19930;-61
2023/10/07 14:55:10;;;;;;;;;;;;;;;;;;5086311;28;20363;-60
2023/10/07 14:57:35;;;;;;;;;;;;;;;;;;5084894;28;19920;-61
2023/10/07 15:00:01;;;;;;;;;;;;;;;;;;5085572;28;19916;-61
2023/10/07 15:02:28;;;;;;;;;;;;;;;;;;5086438;28;19951;-60
2023/10/07 15:04:53;;;;;;;;;;;;;;;;;;5086909;28;20376;-60
2023/10/07 15:07:20;;;;;;;;;;;;;;;;;;5088644;28;20003;-60
2023/10/07 15:09:48;;;;;;;;;;;;;;;;;;5090346;28;20605;-58
2023/10/07 15:12:16;;;;;;;;;;;;;;;;;;5091415;28;19924;-62
2023/10/07 15:14:42;;;;;;;;;;;;;;;;;;5086093;28;19923;-61
2023/10/07 15:17:07;;;;;;;;;;;;;;;;;;5090399;28;19916;-58
2023/10/07 15:19:33;;;;;;;;;;;;;;;;;;5090857;28;19915;-59
2023/10/07 15:21:59;;;;;;;;;;;;;;;;;;5089702;28;19912;-59
2023/10/07 15:24:25;;;;;;;;;;;;;;;;;;5086410;28;20397;-61
2023/10/07 15:26:50;;;;;;;;;;;;;;;;;;5083682;28;19923;-60
2023/10/07 15:29:16;;;;;;;;;;;;;;;;;;5083738;28;19915;-60
2023/10/07 15:31:41;;;;;;;;;;;;;;;;;;5082288;28;20269;-61
2023/10/07 15:34:10;;;;;;;;;;;;;;;;;;5084191;28;19923;-61
2023/10/07 15:36:37;;;;;;;;;;;;;;;;;;5083940;28;19916;-59
2023/10/07 15:39:02;;;;;;;;;;;;;;;;;;5082598;28;19915;-61
2023/10/07 15:41:28;;;;;;;;;;;;;;;;;;5084070;28;20357;-60
2023/10/07 15:43:53;;;;;;;;;;;;;;;;;;5083941;28;20010;-60
2023/10/07 15:46:18;;;;;;;;;;;;;;;;;;5083781;28;19919;-63
2023/10/07 15:48:44;;;;;;;;;;;;;;;;;;5081707;28;19921;-60
2023/10/07 15:51:10;;;;;;;;;;;;;;;;;;5084323;28;19912;-64
2023/10/07 15:57:34;;;;;;;5.47;4.78;;;;;;;9.12;98.89;95699.66;5055954;27;2051099;-60
2023/10/07 16:00:11;;;;;;;5.05;4.03;;;;;;;9.19;99.67;95703.38;5102708;28;20036;-60
2023/10/07 16:02:38;;;;;;;6.28;4.28;;;;;;;9.26;100.00;95694.94;5086240;28;20046;-62
2023/10/07 16:05:07;;;;;;;4.47;3.78;;;;;;;9.29;100.00;95704.88;5101934;28;20040;-61
2023/10/07 16:07:38;;;;;;;7.05;3.88;;;;;;;9.32;100.00;95705.03;5106957;28;20052;-61
2023/10/07 16:10:12;;;;;;;5.55;4.30;;;;;;;9.28;100.00;95704.09;5089535;28;20040;-61
2023/10/07 16:12:41;;;;;;;5.55;4.30;;;;;;;9.35;100.00;95700.19;5053844;28;20055;-63
2023/10/07 16:15:10;;;;;;;5.25;3.63;;;;;;;9.37;100.00;95693.50;5107915;28;20089;-62
2023/10/07 16:17:40;;;;;;;4.95;4.00;;;;;;;9.40;100.00;95698.13;5088334;28;20401;-63
2023/10/07 16:20:09;;;;;;;3.92;3.35;;;;;;;9.42;100.00;95703.88;5107929;28;20484;-63
2023/10/07 16:22:38;;;;;;;3.97;3.40;;;;;;;9.41;100.00;95712.13;5105064;28;20075;-62
2023/10/07 16:25:08;;;;;;;5.50;3.30;;;;;;;9.41;100.00;95722.69;5107486;28;20124;-60
2023/10/07 16:27:35;;;;;;;3.70;3.00;;;;;;;9.40;100.00;95756.28;5107752;28;20043;-62
2023/10/07 16:30:05;;;;;;;3.17;2.45;;;;;;;9.37;100.00;95735.00;5107611;28;20031;-62
2023/10/07 16:32:35;;;;;;;3.00;2.10;;;;;;;9.28;100.00;95750.91;5105050;28;20443;-61
2023/10/07 16:35:03;;;;;;;3.23;1.90;;;;;;;9.19;100.00;95737.72;5088398;28;20044;-64
2023/10/07 16:37:29;;;;;;;1.85;1.58;;;;;;;9.18;100.00;95732.78;5087336;28;20045;-62
2023/10/07 16:39:57;;;;;;;2.53;1.58;;;;;;;9.18;100.00;95711.63;5087495;28;20036;-62
2023/10/07 16:42:27;;;;;;;3.63;1.73;;;;;;;9.16;100.00;95690.81;5087648;28;20044;-62
2023/10/07 16:44:53;;;;;;;1.90;1.45;;;;;;;9.10;100.00;95663.00;5053124;28;20048;-62
2023/10/07 16:47:19;;;;;;;1.38;1.27;;;;;;;9.08;100.00;95644.81;5087355;28;20069;-61
2023/10/07 16:49:47;;;;;;;1.70;1.30;;;;;;;9.05;100.00;95648.09;5069100;28;20055;-64
2023/10/07 16:52:13;;;;;;;2.10;1.65;;;;;;;9.12;100.00;95644.97;5087134;28;20044;-62
2023/10/07 16:54:40;;;;;;;2.63;1.40;;;;;;;9.12;100.00;95637.06;5087018;28;20097;-61
2023/10/07 16:57:09;;;;;;;2.60;1.52;;;;;;;9.10;100.00;95642.66;5087078;28;20078;-61
2023/10/07 16:59:35;;;;;;;3.40;1.70;;;;;;;9.09;99.98;95645.63;5087212;28;20044;-61
2023/10/07 17:02:01;;;;;;;1.80;1.48;;;;;;;9.08;99.10;95646.69;5052217;28;20067;-62